![]() |
EMODnet Physics ERDDAP
Easier access to scientific data |
log in|
Brought to you by EMODnet Physics |
| Dataset Title: | AAD - Collection of dew point temperature (DEWT) TimeSeries - IN SITU MultiPointTimeSeriesObservation
|
| Institution: | AAD (Dataset ID: TS_DEWT_AAD) |
| Information: | Summary
| License
| FGDC
| ISO 19115
| Metadata
| Background
| Subset
| Data Access Form
| Make a graph
|
| Name | Last modified | Size | Description | |
|---|---|---|---|---|
| Parent Directory | - | - | ||
| Casey_TS_DEWT_011997.nc | 28-Oct-2024 06:33 | 819422 | ||
| Casey_TS_DEWT_011998.nc | 28-Oct-2024 06:33 | 811215 | ||
| Casey_TS_DEWT_011999.nc | 28-Oct-2024 06:33 | 969125 | ||
| Casey_TS_DEWT_012000.nc | 28-Oct-2024 06:33 | 902459 | ||
| Casey_TS_DEWT_012001.nc | 28-Oct-2024 06:33 | 988547 | ||
| Casey_TS_DEWT_012002.nc | 28-Oct-2024 06:33 | 829936 | ||
| Casey_TS_DEWT_012003.nc | 28-Oct-2024 06:33 | 7056516 | ||
| Casey_TS_DEWT_012004.nc | 28-Oct-2024 06:33 | 7505084 | ||
| Casey_TS_DEWT_012005.nc | 28-Oct-2024 06:33 | 7992160 | ||
| Casey_TS_DEWT_012006.nc | 28-Oct-2024 06:33 | 7926122 | ||
| Casey_TS_DEWT_012007.nc | 28-Oct-2024 06:33 | 6746558 | ||
| Casey_TS_DEWT_012008.nc | 28-Oct-2024 06:33 | 7865956 | ||
| Casey_TS_DEWT_012009.nc | 28-Oct-2024 06:33 | 8240431 | ||
| Casey_TS_DEWT_012012.nc | 28-Oct-2024 06:34 | 8253475 | ||
| Casey_TS_DEWT_012013.nc | 28-Oct-2024 06:34 | 7409964 | ||
| Casey_TS_DEWT_012014.nc | 28-Oct-2024 06:34 | 7823230 | ||
| Casey_TS_DEWT_012015.nc | 28-Oct-2024 06:34 | 7126335 | ||
| Casey_TS_DEWT_012016.nc | 28-Oct-2024 06:34 | 7340559 | ||
| Casey_TS_DEWT_012017.nc | 28-Oct-2024 06:34 | 6110684 | ||
| Casey_TS_DEWT_012018.nc | 28-Oct-2024 06:34 | 8256402 | ||
| Casey_TS_DEWT_012019.nc | 28-Oct-2024 06:34 | 8267418 | ||
| Casey_TS_DEWT_012020.nc | 28-Oct-2024 06:34 | 2728401 | ||
| Casey_TS_DEWT_012022.nc | 28-Oct-2024 06:34 | 8259357 | ||
| Casey_TS_DEWT_012023.nc | 28-Oct-2024 06:35 | 8275584 | ||
| Casey_TS_DEWT_012024.nc | 28-Oct-2024 06:35 | 10251121 | ||
| Casey_TS_DEWT_012025.nc | 01-Feb-2025 17:37 | 9719537 | ||
| Casey_TS_DEWT_012026.nc | 01-Feb-2026 03:10 | 10075893 | ||
| Casey_TS_DEWT_021997.nc | 28-Oct-2024 06:35 | 820052 | ||
| Casey_TS_DEWT_021998.nc | 28-Oct-2024 06:35 | 816524 | ||
| Casey_TS_DEWT_021999.nc | 28-Oct-2024 06:35 | 748855 | ||
| Casey_TS_DEWT_022000.nc | 28-Oct-2024 06:35 | 898874 | ||
| Casey_TS_DEWT_022001.nc | 28-Oct-2024 06:35 | 756820 | ||
| Casey_TS_DEWT_022002.nc | 28-Oct-2024 06:35 | 352767 | ||
| Casey_TS_DEWT_022003.nc | 28-Oct-2024 06:35 | 7435931 | ||
| Casey_TS_DEWT_022004.nc | 28-Oct-2024 06:35 | 4007523 | ||
| Casey_TS_DEWT_022005.nc | 28-Oct-2024 06:35 | 7305799 | ||
| Casey_TS_DEWT_022006.nc | 28-Oct-2024 06:35 | 6520582 | ||
| Casey_TS_DEWT_022007.nc | 28-Oct-2024 06:35 | 5753180 | ||
| Casey_TS_DEWT_022008.nc | 28-Oct-2024 06:35 | 7502264 | ||
| Casey_TS_DEWT_022009.nc | 28-Oct-2024 06:35 | 7459583 | ||
| Casey_TS_DEWT_022012.nc | 28-Oct-2024 06:36 | 7777353 | ||
| Casey_TS_DEWT_022013.nc | 28-Oct-2024 06:36 | 4554649 | ||
| Casey_TS_DEWT_022014.nc | 28-Oct-2024 06:36 | 7425427 | ||
| Casey_TS_DEWT_022015.nc | 28-Oct-2024 06:36 | 6627913 | ||
| Casey_TS_DEWT_022016.nc | 28-Oct-2024 06:36 | 3685186 | ||
| Casey_TS_DEWT_022017.nc | 28-Oct-2024 06:36 | 7399007 | ||
| Casey_TS_DEWT_022018.nc | 28-Oct-2024 06:36 | 7422256 | ||
| Casey_TS_DEWT_022019.nc | 28-Oct-2024 06:36 | 7440554 | ||
| Casey_TS_DEWT_022022.nc | 28-Oct-2024 06:36 | 7419523 | ||
| Casey_TS_DEWT_022023.nc | 28-Oct-2024 06:36 | 7435309 | ||
| Casey_TS_DEWT_022024.nc | 28-Oct-2024 06:37 | 8615103 | ||
| Casey_TS_DEWT_022025.nc | 01-Mar-2025 03:42 | 9040371 | ||
| Casey_TS_DEWT_022026.nc | 01-Mar-2026 03:13 | 7508804 | ||
| Casey_TS_DEWT_031997.nc | 28-Oct-2024 06:37 | 1047532 | ||
| Casey_TS_DEWT_031998.nc | 28-Oct-2024 06:37 | 820155 | ||
| Casey_TS_DEWT_031999.nc | 28-Oct-2024 06:37 | 888349 | ||
| Casey_TS_DEWT_032000.nc | 28-Oct-2024 06:37 | 906240 | ||
| Casey_TS_DEWT_032001.nc | 28-Oct-2024 06:37 | 991561 | ||
| Casey_TS_DEWT_032002.nc | 28-Oct-2024 06:37 | 341872 | ||
| Casey_TS_DEWT_032003.nc | 28-Oct-2024 06:37 | 8295533 | ||
| Casey_TS_DEWT_032004.nc | 28-Oct-2024 06:37 | 8001117 | ||
| Casey_TS_DEWT_032005.nc | 28-Oct-2024 06:37 | 7490189 | ||
| Casey_TS_DEWT_032006.nc | 28-Oct-2024 06:37 | 7595753 | ||
| Casey_TS_DEWT_032007.nc | 28-Oct-2024 06:37 | 7839005 | ||
| Casey_TS_DEWT_032008.nc | 28-Oct-2024 06:37 | 7882473 | ||
| Casey_TS_DEWT_032009.nc | 28-Oct-2024 06:37 | 8199706 | ||
| Casey_TS_DEWT_032012.nc | 28-Oct-2024 06:38 | 5667193 | ||
| Casey_TS_DEWT_032013.nc | 28-Oct-2024 06:38 | 6756983 | ||
| Casey_TS_DEWT_032014.nc | 28-Oct-2024 06:38 | 3256827 | ||
| Casey_TS_DEWT_032015.nc | 28-Oct-2024 06:38 | 7373234 | ||
| Casey_TS_DEWT_032016.nc | 28-Oct-2024 06:38 | 8201612 | ||
| Casey_TS_DEWT_032017.nc | 28-Oct-2024 06:38 | 8237891 | ||
| Casey_TS_DEWT_032018.nc | 28-Oct-2024 06:38 | 5413655 | ||
| Casey_TS_DEWT_032019.nc | 28-Oct-2024 06:38 | 8244675 | ||
| Casey_TS_DEWT_032022.nc | 28-Oct-2024 06:38 | 8255846 | ||
| Casey_TS_DEWT_032023.nc | 28-Oct-2024 06:38 | 8244809 | ||
| Casey_TS_DEWT_032024.nc | 16-Sep-2024 16:51 | 10112021 | ||
| Casey_TS_DEWT_032025.nc | 04-Apr-2025 03:43 | 9927621 | ||
| Casey_TS_DEWT_032026.nc | 01-Apr-2026 02:17 | 10126912 | ||
| Casey_TS_DEWT_041993.nc | 28-Oct-2024 06:38 | 417883 | ||
| Casey_TS_DEWT_041996.nc | 28-Oct-2024 06:38 | 657136 | ||
| Casey_TS_DEWT_041997.nc | 28-Oct-2024 06:38 | 897312 | ||
| Casey_TS_DEWT_041998.nc | 28-Oct-2024 06:39 | 896143 | ||
| Casey_TS_DEWT_041999.nc | 28-Oct-2024 06:39 | 887285 | ||
| Casey_TS_DEWT_042000.nc | 28-Oct-2024 06:39 | 903521 | ||
| Casey_TS_DEWT_042001.nc | 28-Oct-2024 06:39 | 831605 | ||
| Casey_TS_DEWT_042002.nc | 28-Oct-2024 06:39 | 589184 | ||
| Casey_TS_DEWT_042003.nc | 28-Oct-2024 06:39 | 8007311 | ||
| Casey_TS_DEWT_042004.nc | 28-Oct-2024 06:39 | 7732816 | ||
| Casey_TS_DEWT_042005.nc | 28-Oct-2024 06:39 | 8002195 | ||
| Casey_TS_DEWT_042006.nc | 28-Oct-2024 06:39 | 7424078 | ||
| Casey_TS_DEWT_042007.nc | 28-Oct-2024 06:39 | 7932115 | ||
| Casey_TS_DEWT_042008.nc | 28-Oct-2024 06:39 | 7535269 | ||
| Casey_TS_DEWT_042009.nc | 28-Oct-2024 06:39 | 8010083 | ||
| Casey_TS_DEWT_042012.nc | 28-Oct-2024 06:39 | 3000624 | ||
| Casey_TS_DEWT_042013.nc | 28-Oct-2024 06:39 | 7772035 | ||
| Casey_TS_DEWT_042014.nc | 28-Oct-2024 06:39 | 3521890 | ||
| Casey_TS_DEWT_042015.nc | 28-Oct-2024 06:40 | 5456231 | ||
| Casey_TS_DEWT_042016.nc | 28-Oct-2024 06:40 | 7968121 | ||
| Casey_TS_DEWT_042017.nc | 28-Oct-2024 06:40 | 7960051 | ||
| Casey_TS_DEWT_042018.nc | 28-Oct-2024 06:40 | 7473748 | ||
| Casey_TS_DEWT_042019.nc | 28-Oct-2024 06:40 | 7779285 | ||
| Casey_TS_DEWT_042022.nc | 28-Oct-2024 06:40 | 7977570 | ||
| Casey_TS_DEWT_042023.nc | 28-Oct-2024 06:40 | 7986395 | ||
| Casey_TS_DEWT_042024.nc | 16-Sep-2024 16:51 | 9885831 | ||
| Casey_TS_DEWT_042025.nc | 01-May-2025 02:16 | 9497315 | ||
| Casey_TS_DEWT_042026.nc | 30-Apr-2026 02:18 | 9437180 | ||
| Casey_TS_DEWT_051996.nc | 28-Oct-2024 06:40 | 819331 | ||
| Casey_TS_DEWT_051997.nc | 28-Oct-2024 06:40 | 341918 | ||
| Casey_TS_DEWT_051998.nc | 28-Oct-2024 06:40 | 1043263 | ||
| Casey_TS_DEWT_051999.nc | 28-Oct-2024 06:40 | 1040396 | ||
| Casey_TS_DEWT_052000.nc | 28-Oct-2024 06:40 | 897424 | ||
| Casey_TS_DEWT_052001.nc | 28-Oct-2024 06:41 | 985954 | ||
| Casey_TS_DEWT_052002.nc | 28-Oct-2024 06:41 | 588232 | ||
| Casey_TS_DEWT_052003.nc | 28-Oct-2024 06:41 | 8345017 | ||
| Casey_TS_DEWT_052004.nc | 28-Oct-2024 06:41 | 5689604 | ||
| Casey_TS_DEWT_052005.nc | 28-Oct-2024 06:41 | 8242016 | ||
| Casey_TS_DEWT_052006.nc | 28-Oct-2024 06:41 | 7941263 | ||
| Casey_TS_DEWT_052007.nc | 28-Oct-2024 06:41 | 7521189 | ||
| Casey_TS_DEWT_052008.nc | 28-Oct-2024 06:41 | 2069631 | ||
| Casey_TS_DEWT_052009.nc | 28-Oct-2024 06:41 | 8304287 | ||
| Casey_TS_DEWT_052012.nc | 28-Oct-2024 06:41 | 4871228 | ||
| Casey_TS_DEWT_052013.nc | 28-Oct-2024 06:41 | 8016764 | ||
| Casey_TS_DEWT_052014.nc | 28-Oct-2024 06:41 | 6720101 | ||
| Casey_TS_DEWT_052015.nc | 28-Oct-2024 06:42 | 5163301 | ||
| Casey_TS_DEWT_052016.nc | 28-Oct-2024 06:42 | 8266432 | ||
| Casey_TS_DEWT_052017.nc | 28-Oct-2024 06:42 | 8253798 | ||
| Casey_TS_DEWT_052018.nc | 28-Oct-2024 06:42 | 7802004 | ||
| Casey_TS_DEWT_052019.nc | 28-Oct-2024 06:42 | 8232151 | ||
| Casey_TS_DEWT_052022.nc | 28-Oct-2024 06:42 | 8252909 | ||
| Casey_TS_DEWT_052023.nc | 28-Oct-2024 06:42 | 8392943 | ||
| Casey_TS_DEWT_052024.nc | 16-Sep-2024 16:51 | 9996458 | ||
| Casey_TS_DEWT_052025.nc | 09-Jul-2025 02:22 | 6957249 | ||
| Casey_TS_DEWT_061996.nc | 28-Oct-2024 06:42 | 901148 | ||
| Casey_TS_DEWT_061997.nc | 28-Oct-2024 06:42 | 829131 | ||
| Casey_TS_DEWT_061998.nc | 28-Oct-2024 06:42 | 892866 | ||
| Casey_TS_DEWT_061999.nc | 28-Oct-2024 06:42 | 341917 | ||
| Casey_TS_DEWT_062000.nc | 28-Oct-2024 06:42 | 982400 | ||
| Casey_TS_DEWT_062001.nc | 28-Oct-2024 06:42 | 831319 | ||
| Casey_TS_DEWT_062002.nc | 28-Oct-2024 06:42 | 819452 | ||
| Casey_TS_DEWT_062003.nc | 28-Oct-2024 06:43 | 8048414 | ||
| Casey_TS_DEWT_062004.nc | 28-Oct-2024 06:43 | 7287189 | ||
| Casey_TS_DEWT_062005.nc | 28-Oct-2024 06:43 | 7543054 | ||
| Casey_TS_DEWT_062006.nc | 28-Oct-2024 06:43 | 7092015 | ||
| Casey_TS_DEWT_062007.nc | 28-Oct-2024 06:43 | 7288416 | ||
| Casey_TS_DEWT_062008.nc | 28-Oct-2024 06:43 | 7797328 | ||
| Casey_TS_DEWT_062009.nc | 28-Oct-2024 06:43 | 7939498 | ||
| Casey_TS_DEWT_062012.nc | 28-Oct-2024 06:43 | 6713904 | ||
| Casey_TS_DEWT_062013.nc | 28-Oct-2024 06:43 | 7478989 | ||
| Casey_TS_DEWT_062014.nc | 28-Oct-2024 06:43 | 2419674 | ||
| Casey_TS_DEWT_062015.nc | 28-Oct-2024 06:43 | 7060803 | ||
| Casey_TS_DEWT_062016.nc | 28-Oct-2024 06:43 | 8017740 | ||
| Casey_TS_DEWT_062017.nc | 28-Oct-2024 06:44 | 7999717 | ||
| Casey_TS_DEWT_062018.nc | 28-Oct-2024 06:44 | 8034681 | ||
| Casey_TS_DEWT_062019.nc | 28-Oct-2024 06:44 | 7939698 | ||
| Casey_TS_DEWT_062022.nc | 28-Oct-2024 06:44 | 7987960 | ||
| Casey_TS_DEWT_062023.nc | 28-Oct-2024 06:44 | 10385434 | ||
| Casey_TS_DEWT_062024.nc | 16-Sep-2024 16:51 | 10357383 | ||
| Casey_TS_DEWT_071993.nc | 28-Oct-2024 06:44 | 418643 | ||
| Casey_TS_DEWT_071996.nc | 28-Oct-2024 06:44 | 901752 | ||
| Casey_TS_DEWT_071997.nc | 28-Oct-2024 06:44 | 1049369 | ||
| Casey_TS_DEWT_071998.nc | 28-Oct-2024 06:44 | 1041824 | ||
| Casey_TS_DEWT_071999.nc | 28-Oct-2024 06:44 | 910542 | ||
| Casey_TS_DEWT_072000.nc | 28-Oct-2024 06:44 | 981808 | ||
| Casey_TS_DEWT_072001.nc | 28-Oct-2024 06:44 | 983768 | ||
| Casey_TS_DEWT_072002.nc | 28-Oct-2024 06:44 | 825475 | ||
| Casey_TS_DEWT_072003.nc | 28-Oct-2024 06:45 | 8336531 | ||
| Casey_TS_DEWT_072004.nc | 28-Oct-2024 06:45 | 7682701 | ||
| Casey_TS_DEWT_072005.nc | 28-Oct-2024 06:45 | 7500628 | ||
| Casey_TS_DEWT_072006.nc | 28-Oct-2024 06:45 | 8123145 | ||
| Casey_TS_DEWT_072007.nc | 28-Oct-2024 06:45 | 7553865 | ||
| Casey_TS_DEWT_072008.nc | 28-Oct-2024 06:45 | 8032853 | ||
| Casey_TS_DEWT_072009.nc | 28-Oct-2024 06:45 | 8273225 | ||
| Casey_TS_DEWT_072012.nc | 28-Oct-2024 06:45 | 7969705 | ||
| Casey_TS_DEWT_072013.nc | 28-Oct-2024 06:45 | 7709257 | ||
| Casey_TS_DEWT_072014.nc | 28-Oct-2024 06:45 | 4829191 | ||
| Casey_TS_DEWT_072015.nc | 28-Oct-2024 06:45 | 7316481 | ||
| Casey_TS_DEWT_072016.nc | 28-Oct-2024 06:46 | 8295405 | ||
| Casey_TS_DEWT_072017.nc | 28-Oct-2024 06:46 | 8280704 | ||
| Casey_TS_DEWT_072018.nc | 28-Oct-2024 06:46 | 6691609 | ||
| Casey_TS_DEWT_072019.nc | 28-Oct-2024 06:46 | 8250963 | ||
| Casey_TS_DEWT_072022.nc | 28-Oct-2024 06:46 | 8269332 | ||
| Casey_TS_DEWT_072023.nc | 28-Oct-2024 06:46 | 10891337 | ||
| Casey_TS_DEWT_072024.nc | 16-Sep-2024 16:51 | 10125657 | ||
| Casey_TS_DEWT_072025.nc | 01-Aug-2025 02:23 | 7459291 | ||
| Casey_TS_DEWT_081993.nc | 28-Oct-2024 06:46 | 493214 | ||
| Casey_TS_DEWT_081996.nc | 28-Oct-2024 06:46 | 899010 | ||
| Casey_TS_DEWT_081997.nc | 28-Oct-2024 06:46 | 1047872 | ||
| Casey_TS_DEWT_081998.nc | 28-Oct-2024 06:46 | 1039985 | ||
| Casey_TS_DEWT_081999.nc | 28-Oct-2024 06:46 | 910641 | ||
| Casey_TS_DEWT_082000.nc | 28-Oct-2024 06:46 | 759291 | ||
| Casey_TS_DEWT_082001.nc | 28-Oct-2024 06:46 | 985673 | ||
| Casey_TS_DEWT_082002.nc | 28-Oct-2024 06:47 | 1450247 | ||
| Casey_TS_DEWT_082003.nc | 28-Oct-2024 06:47 | 7508407 | ||
| Casey_TS_DEWT_082004.nc | 28-Oct-2024 06:47 | 8037347 | ||
| Casey_TS_DEWT_082005.nc | 28-Oct-2024 06:47 | 6975326 | ||
| Casey_TS_DEWT_082006.nc | 28-Oct-2024 06:47 | 8088476 | ||
| Casey_TS_DEWT_082007.nc | 28-Oct-2024 06:47 | 8266208 | ||
| Casey_TS_DEWT_082008.nc | 28-Oct-2024 06:47 | 7456703 | ||
| Casey_TS_DEWT_082009.nc | 28-Oct-2024 06:47 | 7996896 | ||
| Casey_TS_DEWT_082012.nc | 28-Oct-2024 06:47 | 7323683 | ||
| Casey_TS_DEWT_082013.nc | 28-Oct-2024 06:47 | 7750167 | ||
| Casey_TS_DEWT_082014.nc | 28-Oct-2024 06:47 | 7672335 | ||
| Casey_TS_DEWT_082015.nc | 28-Oct-2024 06:47 | 7293963 | ||
| Casey_TS_DEWT_082016.nc | 28-Oct-2024 06:48 | 8271941 | ||
| Casey_TS_DEWT_082017.nc | 28-Oct-2024 06:48 | 8248421 | ||
| Casey_TS_DEWT_082018.nc | 28-Oct-2024 06:48 | 8317069 | ||
| Casey_TS_DEWT_082019.nc | 28-Oct-2024 06:48 | 8260483 | ||
| Casey_TS_DEWT_082022.nc | 28-Oct-2024 06:48 | 8259020 | ||
| Casey_TS_DEWT_082023.nc | 28-Oct-2024 06:48 | 10917017 | ||
| Casey_TS_DEWT_082024.nc | 16-Sep-2024 16:51 | 10236276 | ||
| Casey_TS_DEWT_082025.nc | 01-Sep-2025 02:28 | 10144254 | ||
| Casey_TS_DEWT_091993.nc | 28-Oct-2024 06:48 | 418724 | ||
| Casey_TS_DEWT_091996.nc | 28-Oct-2024 06:48 | 816325 | ||
| Casey_TS_DEWT_091997.nc | 28-Oct-2024 06:48 | 898704 | ||
| Casey_TS_DEWT_091998.nc | 28-Oct-2024 06:48 | 815760 | ||
| Casey_TS_DEWT_091999.nc | 28-Oct-2024 06:48 | 892506 | ||
| Casey_TS_DEWT_092000.nc | 28-Oct-2024 06:48 | 977915 | ||
| Casey_TS_DEWT_092001.nc | 28-Oct-2024 06:48 | 341917 | ||
| Casey_TS_DEWT_092002.nc | 28-Oct-2024 06:48 | 7268425 | ||
| Casey_TS_DEWT_092003.nc | 28-Oct-2024 06:49 | 7437895 | ||
| Casey_TS_DEWT_092004.nc | 28-Oct-2024 06:49 | 7691024 | ||
| Casey_TS_DEWT_092005.nc | 28-Oct-2024 06:49 | 7881227 | ||
| Casey_TS_DEWT_092006.nc | 28-Oct-2024 06:49 | 6500075 | ||
| Casey_TS_DEWT_092007.nc | 28-Oct-2024 06:49 | 8086023 | ||
| Casey_TS_DEWT_092008.nc | 28-Oct-2024 06:49 | 7995683 | ||
| Casey_TS_DEWT_092009.nc | 28-Oct-2024 06:49 | 7973033 | ||
| Casey_TS_DEWT_092012.nc | 28-Oct-2024 06:49 | 7755625 | ||
| Casey_TS_DEWT_092013.nc | 28-Oct-2024 06:49 | 7740627 | ||
| Casey_TS_DEWT_092014.nc | 28-Oct-2024 06:49 | 7117162 | ||
| Casey_TS_DEWT_092015.nc | 28-Oct-2024 06:49 | 6979630 | ||
| Casey_TS_DEWT_092016.nc | 28-Oct-2024 06:49 | 7963357 | ||
| Casey_TS_DEWT_092017.nc | 28-Oct-2024 06:49 | 7984363 | ||
| Casey_TS_DEWT_092018.nc | 28-Oct-2024 06:49 | 7957104 | ||
| Casey_TS_DEWT_092019.nc | 28-Oct-2024 06:50 | 7957816 | ||
| Casey_TS_DEWT_092021.nc | 28-Oct-2024 06:50 | 7761575 | ||
| Casey_TS_DEWT_092022.nc | 28-Oct-2024 06:50 | 7974655 | ||
| Casey_TS_DEWT_092023.nc | 28-Oct-2024 06:50 | 10319108 | ||
| Casey_TS_DEWT_092024.nc | 01-Oct-2024 02:08 | 10117267 | ||
| Casey_TS_DEWT_092025.nc | 01-Oct-2025 02:01 | 9576475 | ||
| Casey_TS_DEWT_101996.nc | 28-Oct-2024 06:50 | 817427 | ||
| Casey_TS_DEWT_101997.nc | 28-Oct-2024 06:50 | 1046470 | ||
| Casey_TS_DEWT_101998.nc | 28-Oct-2024 06:50 | 1038689 | ||
| Casey_TS_DEWT_101999.nc | 28-Oct-2024 06:50 | 906917 | ||
| Casey_TS_DEWT_102000.nc | 28-Oct-2024 06:50 | 1126639 | ||
| Casey_TS_DEWT_102002.nc | 28-Oct-2024 06:50 | 8305571 | ||
| Casey_TS_DEWT_102003.nc | 28-Oct-2024 06:50 | 6423655 | ||
| Casey_TS_DEWT_102004.nc | 28-Oct-2024 06:50 | 8487783 | ||
| Casey_TS_DEWT_102005.nc | 28-Oct-2024 06:50 | 7569969 | ||
| Casey_TS_DEWT_102006.nc | 28-Oct-2024 06:51 | 7452754 | ||
| Casey_TS_DEWT_102007.nc | 28-Oct-2024 06:51 | 8093009 | ||
| Casey_TS_DEWT_102008.nc | 28-Oct-2024 06:51 | 8246491 | ||
| Casey_TS_DEWT_102009.nc | 28-Oct-2024 06:51 | 8272396 | ||
| Casey_TS_DEWT_102012.nc | 28-Oct-2024 06:51 | 7485411 | ||
| Casey_TS_DEWT_102013.nc | 28-Oct-2024 06:51 | 6506359 | ||
| Casey_TS_DEWT_102014.nc | 28-Oct-2024 06:51 | 5731253 | ||
| Casey_TS_DEWT_102015.nc | 28-Oct-2024 06:51 | 6646564 | ||
| Casey_TS_DEWT_102016.nc | 28-Oct-2024 06:51 | 8251404 | ||
| Casey_TS_DEWT_102017.nc | 28-Oct-2024 06:51 | 8230845 | ||
| Casey_TS_DEWT_102018.nc | 28-Oct-2024 06:51 | 7481355 | ||
| Casey_TS_DEWT_102019.nc | 28-Oct-2024 06:51 | 8267378 | ||
| Casey_TS_DEWT_102021.nc | 28-Oct-2024 06:52 | 8255452 | ||
| Casey_TS_DEWT_102022.nc | 28-Oct-2024 06:52 | 8251768 | ||
| Casey_TS_DEWT_102023.nc | 28-Oct-2024 06:52 | 9816896 | ||
| Casey_TS_DEWT_102024.nc | 01-Nov-2024 03:19 | 10469677 | ||
| Casey_TS_DEWT_102025.nc | 01-Nov-2025 03:04 | 9723216 | ||
| Casey_TS_DEWT_111996.nc | 28-Oct-2024 06:52 | 818549 | ||
| Casey_TS_DEWT_111997.nc | 28-Oct-2024 06:52 | 897666 | ||
| Casey_TS_DEWT_111998.nc | 28-Oct-2024 06:52 | 813084 | ||
| Casey_TS_DEWT_111999.nc | 28-Oct-2024 06:52 | 826369 | ||
| Casey_TS_DEWT_112000.nc | 28-Oct-2024 06:52 | 832944 | ||
| Casey_TS_DEWT_112001.nc | 28-Oct-2024 06:52 | 887018 | ||
| Casey_TS_DEWT_112002.nc | 28-Oct-2024 06:52 | 7436923 | ||
| Casey_TS_DEWT_112003.nc | 28-Oct-2024 06:52 | 7285537 | ||
| Casey_TS_DEWT_112004.nc | 28-Oct-2024 06:52 | 7837431 | ||
| Casey_TS_DEWT_112005.nc | 28-Oct-2024 06:52 | 7939169 | ||
| Casey_TS_DEWT_112006.nc | 28-Oct-2024 06:52 | 6606599 | ||
| Casey_TS_DEWT_112007.nc | 28-Oct-2024 06:53 | 7867221 | ||
| Casey_TS_DEWT_112008.nc | 28-Oct-2024 06:53 | 7954616 | ||
| Casey_TS_DEWT_112009.nc | 28-Oct-2024 06:53 | 1090259 | ||
| Casey_TS_DEWT_112012.nc | 28-Oct-2024 06:53 | 7465294 | ||
| Casey_TS_DEWT_112013.nc | 28-Oct-2024 06:53 | 6651871 | ||
| Casey_TS_DEWT_112014.nc | 28-Oct-2024 06:53 | 6127055 | ||
| Casey_TS_DEWT_112015.nc | 28-Oct-2024 06:53 | 6620487 | ||
| Casey_TS_DEWT_112016.nc | 28-Oct-2024 06:53 | 7815678 | ||
| Casey_TS_DEWT_112017.nc | 28-Oct-2024 06:53 | 7964106 | ||
| Casey_TS_DEWT_112018.nc | 28-Oct-2024 06:53 | 6457277 | ||
| Casey_TS_DEWT_112019.nc | 28-Oct-2024 06:53 | 8015433 | ||
| Casey_TS_DEWT_112021.nc | 28-Oct-2024 06:53 | 7966640 | ||
| Casey_TS_DEWT_112022.nc | 28-Oct-2024 06:53 | 7978165 | ||
| Casey_TS_DEWT_112023.nc | 28-Oct-2024 06:54 | 9378234 | ||
| Casey_TS_DEWT_112024.nc | 01-Dec-2024 03:32 | 10086670 | ||
| Casey_TS_DEWT_112025.nc | 01-Dec-2025 03:08 | 9667792 | ||
| Casey_TS_DEWT_121996.nc | 28-Oct-2024 06:54 | 898553 | ||
| Casey_TS_DEWT_121997.nc | 28-Oct-2024 06:54 | 341775 | ||
| Casey_TS_DEWT_121998.nc | 28-Oct-2024 06:54 | 889852 | ||
| Casey_TS_DEWT_121999.nc | 28-Oct-2024 06:54 | 664151 | ||
| Casey_TS_DEWT_122000.nc | 28-Oct-2024 06:54 | 830092 | ||
| Casey_TS_DEWT_122001.nc | 28-Oct-2024 06:54 | 905350 | ||
| Casey_TS_DEWT_122002.nc | 28-Oct-2024 06:54 | 7843787 | ||
| Casey_TS_DEWT_122003.nc | 28-Oct-2024 06:54 | 8038590 | ||
| Casey_TS_DEWT_122004.nc | 28-Oct-2024 06:54 | 8358624 | ||
| Casey_TS_DEWT_122005.nc | 28-Oct-2024 06:54 | 7103366 | ||
| Casey_TS_DEWT_122006.nc | 28-Oct-2024 06:54 | 7935406 | ||
| Casey_TS_DEWT_122007.nc | 28-Oct-2024 06:54 | 8315325 | ||
| Casey_TS_DEWT_122008.nc | 28-Oct-2024 06:54 | 8243226 | ||
| Casey_TS_DEWT_122011.nc | 28-Oct-2024 06:54 | 2164017 | ||
| Casey_TS_DEWT_122012.nc | 28-Oct-2024 06:55 | 7406759 | ||
| Casey_TS_DEWT_122013.nc | 28-Oct-2024 06:55 | 7302371 | ||
| Casey_TS_DEWT_122014.nc | 28-Oct-2024 06:55 | 7133025 | ||
| Casey_TS_DEWT_122015.nc | 28-Oct-2024 06:55 | 7218735 | ||
| Casey_TS_DEWT_122016.nc | 28-Oct-2024 06:55 | 4819676 | ||
| Casey_TS_DEWT_122017.nc | 28-Oct-2024 06:55 | 8287240 | ||
| Casey_TS_DEWT_122018.nc | 28-Oct-2024 06:55 | 7010124 | ||
| Casey_TS_DEWT_122019.nc | 28-Oct-2024 06:55 | 8263179 | ||
| Casey_TS_DEWT_122021.nc | 28-Oct-2024 06:55 | 8273958 | ||
| Casey_TS_DEWT_122022.nc | 28-Oct-2024 06:55 | 8258249 | ||
| Casey_TS_DEWT_122023.nc | 28-Oct-2024 06:55 | 10115311 | ||
| Casey_TS_DEWT_122024.nc | 01-Jan-2025 03:39 | 10041259 | ||
| Casey_TS_DEWT_122025.nc | 01-Jan-2026 03:10 | 10135604 | ||